Hauptseite
METAR-TAF:

METAR-TAF

Flughäfen :

Flughafen Khartum

Khartum, Sudan

Breite: 15-36N, Länge: 032-33E, Höhe: 382 m

Beobachtung

Neuester Wetterbericht von vor 24 Minuten, um 05:00 UTC
Wind 13 kt aus Nord
Temperatur 25°C
Luftfeuchtigkeit 13%
Luftdruck 1013 hPa
Sichtweite 10 km oder mehr
keine Wolken unter 1500 m und keine Kumulonimbus oder Gewitterwolken

METAR: HSSS 190500Z 36013KT CAVOK 25/M05 Q1013 NOSIG

Zeit: 08:24 (05:24 UTC)

Prognose

Neuester Wetterbericht von vor 6 Stunden und 24 Minuten, um 23:00 UTC
Gültige Prognose vom 19 um 00 UTC bis 20 um 06 UTC
Wind 12 kt aus Nord, Böen bis zu 22 kt
Sichtweite 10 km oder mehr
keine Wolken unter 1500 m und keine Kumulonimbus oder Gewitterwolken
Zeitweise
vom 19 um 04 UTC bis 19 um 09 UTC
Sichtweite: 6000 m

TAF: HSSS 182300Z 1900/2006 36012G22KT CAVOK TEMPO 1904/1909 6000

Wetterbeobachtungen und Prognosen von mehr als 4000 Flughäfen (METAR und TAF Bericht).

Die verfügbaren Stationen werden durch gelbe und rote Markierungen auf der Karte dargestellt.

Führen Sie die Maus auf sie, um den Namen der Station zu sehen.

Darauf klicken, um die Beobachtung von Wetterbeobachtungen und Prognosen zu sehen.

Um die Karte zu ändern : klicken Sie auf den grünen Tasten mit einem schwarzen Kreuz Zum Vergrößern, auf den grünen Button mit einem Gedankenstrich zu verkleinern, oder auf die grünen Pfeile für benachbarte Karten.


METAR-TAF: